sensor_id;sensor_type;location;lat;lon;timestamp;P1;durP1;ratioP1;P2;durP2;ratioP2
4547;SDS011;2286;51.570;7.090;2023-08-17T00:01:05;16.10;;;6.83;;
4547;SDS011;2286;51.570;7.090;2023-08-17T00:03:32;13.33;;;6.70;;
4547;SDS011;2286;51.570;7.090;2023-08-17T00:05:59;10.23;;;6.17;;
4547;SDS011;2286;51.570;7.090;2023-08-17T00:08:27;10.00;;;5.30;;
4547;SDS011;2286;51.570;7.090;2023-08-17T00:10:54;7.10;;;6.30;;
4547;SDS011;2286;51.570;7.090;2023-08-17T00:13:21;17.67;;;6.43;;
4547;SDS011;2286;51.570;7.090;2023-08-17T00:15:48;7.63;;;6.03;;
4547;SDS011;2286;51.570;7.090;2023-08-17T00:18:15;8.27;;;6.80;;
4547;SDS011;2286;51.570;7.090;2023-08-17T00:20:42;7.73;;;6.40;;
4547;SDS011;2286;51.570;7.090;2023-08-17T00:23:10;10.30;;;6.87;;
4547;SDS011;2286;51.570;7.090;2023-08-17T00:25:38;14.40;;;7.87;;
4547;SDS011;2286;51.570;7.090;2023-08-17T00:28:05;8.57;;;7.60;;
4547;SDS011;2286;51.570;7.090;2023-08-17T00:30:32;11.60;;;7.63;;
4547;SDS011;2286;51.570;7.090;2023-08-17T00:33:01;7.93;;;6.13;;
4547;SDS011;2286;51.570;7.090;2023-08-17T00:35:28;8.00;;;6.77;;
4547;SDS011;2286;51.570;7.090;2023-08-17T00:37:55;13.27;;;7.10;;
4547;SDS011;2286;51.570;7.090;2023-08-17T00:40:22;7.13;;;6.30;;
4547;SDS011;2286;51.570;7.090;2023-08-17T00:42:50;6.03;;;5.53;;
4547;SDS011;2286;51.570;7.090;2023-08-17T00:45:17;9.13;;;6.40;;
4547;SDS011;2286;51.570;7.090;2023-08-17T00:47:45;7.27;;;5.90;;
4547;SDS011;2286;51.570;7.090;2023-08-17T00:50:12;6.67;;;6.17;;
4547;SDS011;2286;51.570;7.090;2023-08-17T00:52:41;11.97;;;6.93;;
4547;SDS011;2286;51.570;7.090;2023-08-17T00:55:08;8.10;;;7.30;;
4547;SDS011;2286;51.570;7.090;2023-08-17T00:57:37;8.80;;;7.93;;
4547;SDS011;2286;51.570;7.090;2023-08-17T01:00:07;10.67;;;7.20;;
4547;SDS011;2286;51.570;7.090;2023-08-17T01:02:36;8.80;;;7.90;;
4547;SDS011;2286;51.570;7.090;2023-08-17T01:05:04;14.00;;;7.30;;
4547;SDS011;2286;51.570;7.090;2023-08-17T01:07:32;7.93;;;7.30;;
4547;SDS011;2286;51.570;7.090;2023-08-17T01:09:59;7.77;;;7.10;;
4547;SDS011;2286;51.570;7.090;2023-08-17T01:12:29;9.97;;;6.70;;
4547;SDS011;2286;51.570;7.090;2023-08-17T01:15:00;12.43;;;6.60;;
4547;SDS011;2286;51.570;7.090;2023-08-17T01:17:33;11.43;;;6.97;;
4547;SDS011;2286;51.570;7.090;2023-08-17T01:20:04;7.83;;;6.97;;
4547;SDS011;2286;51.570;7.090;2023-08-17T01:22:34;8.30;;;6.70;;
4547;SDS011;2286;51.570;7.090;2023-08-17T01:25:05;8.30;;;6.63;;
4547;SDS011;2286;51.570;7.090;2023-08-17T01:27:36;7.43;;;6.73;;
4547;SDS011;2286;51.570;7.090;2023-08-17T01:30:04;10.60;;;6.70;;
4547;SDS011;2286;51.570;7.090;2023-08-17T01:32:34;7.00;;;6.33;;
4547;SDS011;2286;51.570;7.090;2023-08-17T01:35:09;7.80;;;6.93;;
4547;SDS011;2286;51.570;7.090;2023-08-17T01:37:42;7.23;;;6.63;;
4547;SDS011;2286;51.570;7.090;2023-08-17T01:40:11;9.90;;;7.60;;
4547;SDS011;2286;51.570;7.090;2023-08-17T01:42:40;11.80;;;7.20;;
4547;SDS011;2286;51.570;7.090;2023-08-17T01:45:09;12.00;;;7.37;;
4547;SDS011;2286;51.570;7.090;2023-08-17T01:47:37;12.37;;;7.17;;
4547;SDS011;2286;51.570;7.090;2023-08-17T01:50:04;8.30;;;7.60;;
4547;SDS011;2286;51.570;7.090;2023-08-17T01:52:31;8.20;;;7.60;;
4547;SDS011;2286;51.570;7.090;2023-08-17T01:54:59;9.27;;;7.23;;
4547;SDS011;2286;51.570;7.090;2023-08-17T01:57:27;7.23;;;5.10;;
4547;SDS011;2286;51.570;7.090;2023-08-17T01:59:54;7.50;;;6.80;;
4547;SDS011;2286;51.570;7.090;2023-08-17T02:02:21;8.80;;;7.47;;
4547;SDS011;2286;51.570;7.090;2023-08-17T02:04:48;7.10;;;6.50;;
4547;SDS011;2286;51.570;7.090;2023-08-17T02:07:15;7.77;;;7.03;;
4547;SDS011;2286;51.570;7.090;2023-08-17T02:09:42;8.27;;;6.40;;
4547;SDS011;2286;51.570;7.090;2023-08-17T02:12:09;7.63;;;6.97;;
4547;SDS011;2286;51.570;7.090;2023-08-17T02:14:37;6.87;;;6.27;;
4547;SDS011;2286;51.570;7.090;2023-08-17T02:17:04;7.33;;;6.40;;
4547;SDS011;2286;51.570;7.090;2023-08-17T02:19:31;7.20;;;6.60;;
4547;SDS011;2286;51.570;7.090;2023-08-17T02:21:58;8.20;;;7.37;;
4547;SDS011;2286;51.570;7.090;2023-08-17T02:24:25;9.10;;;7.90;;
4547;SDS011;2286;51.570;7.090;2023-08-17T02:26:52;7.97;;;6.97;;
4547;SDS011;2286;51.570;7.090;2023-08-17T02:29:19;7.37;;;6.53;;
4547;SDS011;2286;51.570;7.090;2023-08-17T02:31:47;10.20;;;8.93;;
4547;SDS011;2286;51.570;7.090;2023-08-17T02:34:14;7.83;;;7.03;;
4547;SDS011;2286;51.570;7.090;2023-08-17T02:36:41;6.80;;;6.27;;
4547;SDS011;2286;51.570;7.090;2023-08-17T02:39:08;9.20;;;7.23;;
4547;SDS011;2286;51.570;7.090;2023-08-17T02:41:34;8.77;;;7.97;;
4547;SDS011;2286;51.570;7.090;2023-08-17T02:44:01;9.07;;;8.17;;
4547;SDS011;2286;51.570;7.090;2023-08-17T02:46:29;7.87;;;7.17;;
4547;SDS011;2286;51.570;7.090;2023-08-17T02:48:57;8.13;;;7.43;;
4547;SDS011;2286;51.570;7.090;2023-08-17T02:51:24;8.30;;;7.40;;
4547;SDS011;2286;51.570;7.090;2023-08-17T02:53:50;9.27;;;7.50;;
4547;SDS011;2286;51.570;7.090;2023-08-17T02:56:17;8.17;;;7.37;;
4547;SDS011;2286;51.570;7.090;2023-08-17T02:58:44;10.07;;;7.43;;
4547;SDS011;2286;51.570;7.090;2023-08-17T03:01:11;7.60;;;6.90;;
4547;SDS011;2286;51.570;7.090;2023-08-17T03:03:38;8.63;;;7.73;;
4547;SDS011;2286;51.570;7.090;2023-08-17T03:06:06;11.60;;;7.73;;
4547;SDS011;2286;51.570;7.090;2023-08-17T03:08:34;9.47;;;6.80;;
4547;SDS011;2286;51.570;7.090;2023-08-17T03:11:00;7.13;;;6.43;;
4547;SDS011;2286;51.570;7.090;2023-08-17T03:13:27;10.93;;;6.80;;
4547;SDS011;2286;51.570;7.090;2023-08-17T03:15:54;7.20;;;6.63;;
4547;SDS011;2286;51.570;7.090;2023-08-17T03:18:21;8.23;;;7.27;;
4547;SDS011;2286;51.570;7.090;2023-08-17T03:20:48;11.23;;;6.93;;
4547;SDS011;2286;51.570;7.090;2023-08-17T03:23:16;14.37;;;8.93;;
4547;SDS011;2286;51.570;7.090;2023-08-17T03:25:43;9.47;;;7.40;;
4547;SDS011;2286;51.570;7.090;2023-08-17T03:28:10;8.53;;;6.70;;
4547;SDS011;2286;51.570;7.090;2023-08-17T03:30:37;7.80;;;6.97;;
4547;SDS011;2286;51.570;7.090;2023-08-17T03:33:04;11.43;;;6.90;;
4547;SDS011;2286;51.570;7.090;2023-08-17T03:35:31;12.20;;;7.97;;
4547;SDS011;2286;51.570;7.090;2023-08-17T03:37:57;9.23;;;6.30;;
4547;SDS011;2286;51.570;7.090;2023-08-17T03:40:26;8.30;;;6.70;;
4547;SDS011;2286;51.570;7.090;2023-08-17T03:42:52;10.93;;;6.13;;
4547;SDS011;2286;51.570;7.090;2023-08-17T03:45:19;9.50;;;6.83;;
4547;SDS011;2286;51.570;7.090;2023-08-17T03:47:46;7.67;;;6.93;;
4547;SDS011;2286;51.570;7.090;2023-08-17T03:50:13;8.10;;;7.00;;
4547;SDS011;2286;51.570;7.090;2023-08-17T03:52:39;7.50;;;6.80;;
4547;SDS011;2286;51.570;7.090;2023-08-17T03:55:06;6.77;;;6.17;;
4547;SDS011;2286;51.570;7.090;2023-08-17T03:57:35;8.00;;;7.17;;
4547;SDS011;2286;51.570;7.090;2023-08-17T04:00:02;8.20;;;6.23;;
4547;SDS011;2286;51.570;7.090;2023-08-17T04:02:30;8.77;;;6.60;;
4547;SDS011;2286;51.570;7.090;2023-08-17T04:04:57;6.90;;;6.20;;
4547;SDS011;2286;51.570;7.090;2023-08-17T04:07:24;10.17;;;8.10;;
4547;SDS011;2286;51.570;7.090;2023-08-17T04:09:51;8.87;;;6.63;;
4547;SDS011;2286;51.570;7.090;2023-08-17T04:12:17;7.83;;;5.87;;
4547;SDS011;2286;51.570;7.090;2023-08-17T04:14:46;9.00;;;6.20;;
4547;SDS011;2286;51.570;7.090;2023-08-17T04:17:13;9.03;;;7.20;;
4547;SDS011;2286;51.570;7.090;2023-08-17T04:19:40;7.50;;;6.13;;
4547;SDS011;2286;51.570;7.090;2023-08-17T04:22:07;6.87;;;5.90;;
4547;SDS011;2286;51.570;7.090;2023-08-17T04:24:34;8.57;;;6.73;;
4547;SDS011;2286;51.570;7.090;2023-08-17T04:27:00;7.83;;;6.20;;
4547;SDS011;2286;51.570;7.090;2023-08-17T04:29:27;7.63;;;6.10;;
4547;SDS011;2286;51.570;7.090;2023-08-17T04:31:56;6.53;;;5.67;;
4547;SDS011;2286;51.570;7.090;2023-08-17T04:34:23;8.07;;;6.80;;
4547;SDS011;2286;51.570;7.090;2023-08-17T04:36:50;7.97;;;6.73;;
4547;SDS011;2286;51.570;7.090;2023-08-17T04:39:17;7.03;;;6.33;;
4547;SDS011;2286;51.570;7.090;2023-08-17T04:41:43;7.47;;;6.17;;
4547;SDS011;2286;51.570;7.090;2023-08-17T04:44:10;10.27;;;6.43;;
4547;SDS011;2286;51.570;7.090;2023-08-17T04:46:37;6.80;;;6.10;;
4547;SDS011;2286;51.570;7.090;2023-08-17T04:49:05;7.10;;;6.50;;
4547;SDS011;2286;51.570;7.090;2023-08-17T04:51:32;9.03;;;6.50;;
4547;SDS011;2286;51.570;7.090;2023-08-17T04:53:58;6.33;;;5.70;;
4547;SDS011;2286;51.570;7.090;2023-08-17T04:56:25;7.60;;;5.77;;
4547;SDS011;2286;51.570;7.090;2023-08-17T04:58:53;9.70;;;6.20;;
4547;SDS011;2286;51.570;7.090;2023-08-17T05:01:19;7.30;;;5.77;;
4547;SDS011;2286;51.570;7.090;2023-08-17T05:03:47;6.53;;;6.03;;
4547;SDS011;2286;51.570;7.090;2023-08-17T05:06:15;9.40;;;6.13;;
4547;SDS011;2286;51.570;7.090;2023-08-17T05:08:41;7.53;;;5.70;;
4547;SDS011;2286;51.570;7.090;2023-08-17T05:11:08;8.43;;;5.90;;
4547;SDS011;2286;51.570;7.090;2023-08-17T05:13:35;12.30;;;7.10;;
4547;SDS011;2286;51.570;7.090;2023-08-17T05:16:02;7.00;;;5.80;;
4547;SDS011;2286;51.570;7.090;2023-08-17T05:18:29;8.70;;;5.90;;
4547;SDS011;2286;51.570;7.090;2023-08-17T05:20:55;10.63;;;7.20;;
4547;SDS011;2286;51.570;7.090;2023-08-17T05:23:24;8.33;;;6.60;;
4547;SDS011;2286;51.570;7.090;2023-08-17T05:25:50;8.70;;;6.47;;
4547;SDS011;2286;51.570;7.090;2023-08-17T05:28:17;7.30;;;6.00;;
4547;SDS011;2286;51.570;7.090;2023-08-17T05:30:44;5.63;;;5.10;;
4547;SDS011;2286;51.570;7.090;2023-08-17T05:33:11;6.07;;;5.50;;
4547;SDS011;2286;51.570;7.090;2023-08-17T05:35:38;9.07;;;5.23;;
4547;SDS011;2286;51.570;7.090;2023-08-17T05:38:05;7.30;;;5.57;;
4547;SDS011;2286;51.570;7.090;2023-08-17T05:40:33;8.40;;;5.40;;
4547;SDS011;2286;51.570;7.090;2023-08-17T05:43:00;7.00;;;5.07;;
4547;SDS011;2286;51.570;7.090;2023-08-17T05:45:27;5.03;;;4.47;;
4547;SDS011;2286;51.570;7.090;2023-08-17T05:47:53;6.10;;;5.53;;
4547;SDS011;2286;51.570;7.090;2023-08-17T05:50:20;7.03;;;5.00;;
4547;SDS011;2286;51.570;7.090;2023-08-17T05:52:47;6.00;;;5.50;;
4547;SDS011;2286;51.570;7.090;2023-08-17T05:55:14;5.27;;;4.73;;
4547;SDS011;2286;51.570;7.090;2023-08-17T05:57:42;5.57;;;4.97;;
4547;SDS011;2286;51.570;7.090;2023-08-17T06:00:09;6.87;;;5.27;;
4547;SDS011;2286;51.570;7.090;2023-08-17T06:02:38;5.73;;;4.23;;
4547;SDS011;2286;51.570;7.090;2023-08-17T06:05:05;6.50;;;5.57;;
4547;SDS011;2286;51.570;7.090;2023-08-17T06:07:34;5.30;;;4.40;;
4547;SDS011;2286;51.570;7.090;2023-08-17T06:10:03;5.13;;;4.60;;
4547;SDS011;2286;51.570;7.090;2023-08-17T06:12:31;5.43;;;4.90;;
4547;SDS011;2286;51.570;7.090;2023-08-17T06:14:59;8.50;;;5.40;;
4547;SDS011;2286;51.570;7.090;2023-08-17T06:17:27;5.33;;;4.90;;
4547;SDS011;2286;51.570;7.090;2023-08-17T06:19:54;5.20;;;4.70;;
4547;SDS011;2286;51.570;7.090;2023-08-17T06:22:21;7.00;;;4.90;;
4547;SDS011;2286;51.570;7.090;2023-08-17T06:24:48;7.10;;;5.33;;
4547;SDS011;2286;51.570;7.090;2023-08-17T06:27:15;8.13;;;5.67;;
4547;SDS011;2286;51.570;7.090;2023-08-17T06:29:41;7.77;;;5.43;;
4547;SDS011;2286;51.570;7.090;2023-08-17T06:32:10;5.33;;;4.90;;
4547;SDS011;2286;51.570;7.090;2023-08-17T06:34:37;6.53;;;5.37;;
4547;SDS011;2286;51.570;7.090;2023-08-17T06:37:03;7.10;;;5.73;;
4547;SDS011;2286;51.570;7.090;2023-08-17T06:39:31;6.47;;;5.77;;
4547;SDS011;2286;51.570;7.090;2023-08-17T06:41:57;8.87;;;5.53;;
4547;SDS011;2286;51.570;7.090;2023-08-17T06:44:24;9.23;;;5.60;;
4547;SDS011;2286;51.570;7.090;2023-08-17T06:46:51;9.97;;;5.63;;
4547;SDS011;2286;51.570;7.090;2023-08-17T06:49:19;9.90;;;5.97;;
4547;SDS011;2286;51.570;7.090;2023-08-17T06:51:46;6.97;;;6.13;;
4547;SDS011;2286;51.570;7.090;2023-08-17T06:54:13;6.77;;;5.40;;
4547;SDS011;2286;51.570;7.090;2023-08-17T06:56:40;7.40;;;5.93;;
4547;SDS011;2286;51.570;7.090;2023-08-17T06:59:06;7.93;;;6.63;;
4547;SDS011;2286;51.570;7.090;2023-08-17T07:01:33;11.63;;;5.63;;
4547;SDS011;2286;51.570;7.090;2023-08-17T07:04:00;8.30;;;5.77;;
4547;SDS011;2286;51.570;7.090;2023-08-17T07:06:28;8.57;;;6.37;;
4547;SDS011;2286;51.570;7.090;2023-08-17T07:08:55;9.23;;;6.90;;
4547;SDS011;2286;51.570;7.090;2023-08-17T07:11:22;6.17;;;5.57;;
4547;SDS011;2286;51.570;7.090;2023-08-17T07:13:49;12.87;;;6.30;;
4547;SDS011;2286;51.570;7.090;2023-08-17T07:16:16;10.23;;;6.27;;
4547;SDS011;2286;51.570;7.090;2023-08-17T07:18:43;8.87;;;6.17;;
4547;SDS011;2286;51.570;7.090;2023-08-17T07:21:10;7.77;;;7.07;;
4547;SDS011;2286;51.570;7.090;2023-08-17T07:23:38;12.53;;;6.63;;
4547;SDS011;2286;51.570;7.090;2023-08-17T07:26:05;6.43;;;5.87;;
4547;SDS011;2286;51.570;7.090;2023-08-17T07:28:32;9.93;;;6.50;;
4547;SDS011;2286;51.570;7.090;2023-08-17T07:30:58;8.17;;;7.37;;
4547;SDS011;2286;51.570;7.090;2023-08-17T07:33:25;7.23;;;6.60;;
4547;SDS011;2286;51.570;7.090;2023-08-17T07:35:52;9.20;;;6.10;;
4547;SDS011;2286;51.570;7.090;2023-08-17T07:38:20;8.97;;;7.40;;
4547;SDS011;2286;51.570;7.090;2023-08-17T07:40:49;8.53;;;6.83;;
4547;SDS011;2286;51.570;7.090;2023-08-17T07:43:15;10.10;;;7.07;;
4547;SDS011;2286;51.570;7.090;2023-08-17T07:45:42;10.17;;;7.37;;
4547;SDS011;2286;51.570;7.090;2023-08-17T07:48:09;8.60;;;7.60;;
4547;SDS011;2286;51.570;7.090;2023-08-17T07:50:36;8.47;;;6.70;;
4547;SDS011;2286;51.570;7.090;2023-08-17T07:53:03;11.70;;;7.77;;
4547;SDS011;2286;51.570;7.090;2023-08-17T07:55:30;9.93;;;6.97;;
4547;SDS011;2286;51.570;7.090;2023-08-17T07:57:58;7.90;;;6.60;;
4547;SDS011;2286;51.570;7.090;2023-08-17T08:00:25;8.83;;;7.40;;
4547;SDS011;2286;51.570;7.090;2023-08-17T08:02:51;8.10;;;7.17;;
4547;SDS011;2286;51.570;7.090;2023-08-17T08:05:18;10.60;;;7.43;;
4547;SDS011;2286;51.570;7.090;2023-08-17T08:07:45;10.40;;;7.83;;
4547;SDS011;2286;51.570;7.090;2023-08-17T08:10:12;14.23;;;7.53;;
4547;SDS011;2286;51.570;7.090;2023-08-17T08:12:39;10.50;;;7.73;;
4547;SDS011;2286;51.570;7.090;2023-08-17T08:15:07;9.70;;;7.37;;
4547;SDS011;2286;51.570;7.090;2023-08-17T08:17:35;12.03;;;7.97;;
4547;SDS011;2286;51.570;7.090;2023-08-17T08:20:02;14.00;;;7.97;;
4547;SDS011;2286;51.570;7.090;2023-08-17T08:22:29;9.83;;;7.03;;
4547;SDS011;2286;51.570;7.090;2023-08-17T08:24:57;10.73;;;7.80;;
4547;SDS011;2286;51.570;7.090;2023-08-17T08:27:24;8.60;;;7.37;;
4547;SDS011;2286;51.570;7.090;2023-08-17T08:29:51;9.00;;;7.30;;
4547;SDS011;2286;51.570;7.090;2023-08-17T08:32:19;10.27;;;8.43;;
4547;SDS011;2286;51.570;7.090;2023-08-17T08:34:46;8.93;;;8.03;;
4547;SDS011;2286;51.570;7.090;2023-08-17T08:37:12;8.07;;;7.27;;
4547;SDS011;2286;51.570;7.090;2023-08-17T08:39:48;10.60;;;8.07;;
4547;SDS011;2286;51.570;7.090;2023-08-17T08:42:16;8.40;;;7.50;;
4547;SDS011;2286;51.570;7.090;2023-08-17T08:44:43;7.20;;;6.60;;
4547;SDS011;2286;51.570;7.090;2023-08-17T08:47:10;10.10;;;7.10;;
4547;SDS011;2286;51.570;7.090;2023-08-17T08:49:39;8.53;;;6.73;;
4547;SDS011;2286;51.570;7.090;2023-08-17T08:52:08;13.80;;;7.50;;
4547;SDS011;2286;51.570;7.090;2023-08-17T08:54:41;11.73;;;7.03;;
4547;SDS011;2286;51.570;7.090;2023-08-17T08:57:12;10.10;;;8.00;;
4547;SDS011;2286;51.570;7.090;2023-08-17T08:59:39;7.60;;;6.90;;
4547;SDS011;2286;51.570;7.090;2023-08-17T09:02:12;9.13;;;6.93;;
4547;SDS011;2286;51.570;7.090;2023-08-17T09:04:42;6.70;;;6.20;;
4547;SDS011;2286;51.570;7.090;2023-08-17T09:07:10;7.10;;;6.60;;
4547;SDS011;2286;51.570;7.090;2023-08-17T09:09:37;7.53;;;6.80;;
4547;SDS011;2286;51.570;7.090;2023-08-17T09:12:05;7.50;;;6.70;;
4547;SDS011;2286;51.570;7.090;2023-08-17T09:14:34;7.63;;;6.83;;
4547;SDS011;2286;51.570;7.090;2023-08-17T09:17:02;12.13;;;7.50;;
4547;SDS011;2286;51.570;7.090;2023-08-17T09:19:31;7.70;;;6.87;;
4547;SDS011;2286;51.570;7.090;2023-08-17T09:21:59;8.47;;;6.30;;
4547;SDS011;2286;51.570;7.090;2023-08-17T09:24:33;9.87;;;7.57;;
4547;SDS011;2286;51.570;7.090;2023-08-17T09:27:00;9.90;;;7.13;;
4547;SDS011;2286;51.570;7.090;2023-08-17T09:29:27;10.17;;;7.10;;
4547;SDS011;2286;51.570;7.090;2023-08-17T09:31:56;8.53;;;7.57;;
4547;SDS011;2286;51.570;7.090;2023-08-17T09:34:23;8.03;;;7.33;;
4547;SDS011;2286;51.570;7.090;2023-08-17T09:36:50;8.40;;;6.37;;
4547;SDS011;2286;51.570;7.090;2023-08-17T09:39:18;7.63;;;6.83;;
4547;SDS011;2286;51.570;7.090;2023-08-17T09:41:45;8.17;;;6.30;;
4547;SDS011;2286;51.570;7.090;2023-08-17T09:44:12;7.13;;;6.43;;
4547;SDS011;2286;51.570;7.090;2023-08-17T09:46:39;6.93;;;6.23;;
4547;SDS011;2286;51.570;7.090;2023-08-17T09:49:08;7.93;;;7.10;;
4547;SDS011;2286;51.570;7.090;2023-08-17T09:51:35;7.90;;;6.60;;
4547;SDS011;2286;51.570;7.090;2023-08-17T09:54:02;7.37;;;6.17;;
4547;SDS011;2286;51.570;7.090;2023-08-17T09:56:31;7.40;;;6.60;;
4547;SDS011;2286;51.570;7.090;2023-08-17T09:58:58;11.13;;;7.00;;
4547;SDS011;2286;51.570;7.090;2023-08-17T10:01:25;8.07;;;7.27;;
4547;SDS011;2286;51.570;7.090;2023-08-17T10:03:55;7.93;;;6.97;;
4547;SDS011;2286;51.570;7.090;2023-08-17T10:06:24;8.60;;;7.33;;
4547;SDS011;2286;51.570;7.090;2023-08-17T10:08:52;7.73;;;6.93;;
4547;SDS011;2286;51.570;7.090;2023-08-17T10:11:21;8.57;;;7.33;;
4547;SDS011;2286;51.570;7.090;2023-08-17T10:13:51;8.67;;;6.77;;
4547;SDS011;2286;51.570;7.090;2023-08-17T10:16:23;9.17;;;7.60;;
4547;SDS011;2286;51.570;7.090;2023-08-17T10:18:53;8.33;;;6.90;;
4547;SDS011;2286;51.570;7.090;2023-08-17T10:21:22;8.60;;;6.73;;
4547;SDS011;2286;51.570;7.090;2023-08-17T10:23:57;10.00;;;7.33;;
4547;SDS011;2286;51.570;7.090;2023-08-17T10:26:25;7.80;;;7.10;;
4547;SDS011;2286;51.570;7.090;2023-08-17T10:28:53;10.27;;;8.93;;
4547;SDS011;2286;51.570;7.090;2023-08-17T10:31:23;12.70;;;9.47;;
4547;SDS011;2286;51.570;7.090;2023-08-17T10:33:50;12.47;;;9.13;;
4547;SDS011;2286;51.570;7.090;2023-08-17T10:36:17;10.10;;;9.20;;
4547;SDS011;2286;51.570;7.090;2023-08-17T10:38:45;10.27;;;9.00;;
4547;SDS011;2286;51.570;7.090;2023-08-17T10:41:12;10.50;;;9.50;;
4547;SDS011;2286;51.570;7.090;2023-08-17T10:43:57;10.37;;;9.30;;
4547;SDS011;2286;51.570;7.090;2023-08-17T10:46:34;11.33;;;8.40;;
4547;SDS011;2286;51.570;7.090;2023-08-17T10:49:04;9.33;;;8.43;;
4547;SDS011;2286;51.570;7.090;2023-08-17T10:51:32;9.80;;;8.87;;
4547;SDS011;2286;51.570;7.090;2023-08-17T10:54:01;9.10;;;8.20;;
4547;SDS011;2286;51.570;7.090;2023-08-17T10:56:29;9.73;;;8.80;;
4547;SDS011;2286;51.570;7.090;2023-08-17T10:59:00;9.10;;;8.20;;
4547;SDS011;2286;51.570;7.090;2023-08-17T11:01:31;9.10;;;8.10;;
4547;SDS011;2286;51.570;7.090;2023-08-17T11:04:08;11.23;;;9.30;;
4547;SDS011;2286;51.570;7.090;2023-08-17T11:06:37;11.73;;;9.10;;
4547;SDS011;2286;51.570;7.090;2023-08-17T11:09:06;9.50;;;8.43;;
4547;SDS011;2286;51.570;7.090;2023-08-17T11:11:33;9.93;;;8.93;;
4547;SDS011;2286;51.570;7.090;2023-08-17T11:14:02;9.20;;;8.27;;
4547;SDS011;2286;51.570;7.090;2023-08-17T11:16:29;9.27;;;8.13;;
4547;SDS011;2286;51.570;7.090;2023-08-17T11:18:56;10.10;;;9.10;;
4547;SDS011;2286;51.570;7.090;2023-08-17T11:21:24;9.20;;;8.37;;
4547;SDS011;2286;51.570;7.090;2023-08-17T11:23:51;12.43;;;9.70;;
4547;SDS011;2286;51.570;7.090;2023-08-17T11:26:21;10.87;;;9.77;;
4547;SDS011;2286;51.570;7.090;2023-08-17T11:28:48;13.87;;;9.90;;
4547;SDS011;2286;51.570;7.090;2023-08-17T11:31:17;13.07;;;10.50;;
4547;SDS011;2286;51.570;7.090;2023-08-17T11:33:44;13.43;;;11.13;;
4547;SDS011;2286;51.570;7.090;2023-08-17T11:36:11;11.07;;;9.97;;
4547;SDS011;2286;51.570;7.090;2023-08-17T11:38:39;13.30;;;12.00;;
4547;SDS011;2286;51.570;7.090;2023-08-17T11:41:07;11.97;;;10.77;;
4547;SDS011;2286;51.570;7.090;2023-08-17T11:43:34;15.90;;;11.07;;
4547;SDS011;2286;51.570;7.090;2023-08-17T11:46:01;12.37;;;9.83;;
4547;SDS011;2286;51.570;7.090;2023-08-17T11:48:30;12.60;;;10.77;;
4547;SDS011;2286;51.570;7.090;2023-08-17T11:50:57;11.60;;;10.40;;
4547;SDS011;2286;51.570;7.090;2023-08-17T11:53:24;12.30;;;11.03;;
4547;SDS011;2286;51.570;7.090;2023-08-17T11:55:58;12.20;;;10.97;;
4547;SDS011;2286;51.570;7.090;2023-08-17T11:58:35;12.80;;;10.40;;
4547;SDS011;2286;51.570;7.090;2023-08-17T12:01:02;11.53;;;10.33;;
4547;SDS011;2286;51.570;7.090;2023-08-17T12:03:36;11.50;;;10.50;;
4547;SDS011;2286;51.570;7.090;2023-08-17T12:06:04;12.60;;;11.00;;
4547;SDS011;2286;51.570;7.090;2023-08-17T12:08:31;13.13;;;11.10;;
4547;SDS011;2286;51.570;7.090;2023-08-17T12:10:59;14.63;;;12.20;;
4547;SDS011;2286;51.570;7.090;2023-08-17T12:13:30;12.40;;;11.30;;
4547;SDS011;2286;51.570;7.090;2023-08-17T12:15:57;12.43;;;11.20;;
4547;SDS011;2286;51.570;7.090;2023-08-17T12:18:24;11.77;;;10.67;;
4547;SDS011;2286;51.570;7.090;2023-08-17T12:20:53;12.20;;;10.80;;
4547;SDS011;2286;51.570;7.090;2023-08-17T12:23:20;13.67;;;11.03;;
4547;SDS011;2286;51.570;7.090;2023-08-17T12:25:52;12.07;;;10.77;;
4547;SDS011;2286;51.570;7.090;2023-08-17T12:28:19;10.83;;;9.80;;
4547;SDS011;2286;51.570;7.090;2023-08-17T12:30:46;11.57;;;10.47;;
4547;SDS011;2286;51.570;7.090;2023-08-17T12:33:12;13.93;;;11.03;;
4547;SDS011;2286;51.570;7.090;2023-08-17T12:35:39;12.20;;;11.00;;
4547;SDS011;2286;51.570;7.090;2023-08-17T12:38:07;11.83;;;10.83;;
4547;SDS011;2286;51.570;7.090;2023-08-17T12:40:34;19.13;;;13.53;;
4547;SDS011;2286;51.570;7.090;2023-08-17T12:43:01;13.13;;;12.03;;
4547;SDS011;2286;51.570;7.090;2023-08-17T12:45:28;12.60;;;11.40;;
4547;SDS011;2286;51.570;7.090;2023-08-17T12:47:56;13.50;;;10.77;;
4547;SDS011;2286;51.570;7.090;2023-08-17T12:50:23;11.80;;;10.70;;
4547;SDS011;2286;51.570;7.090;2023-08-17T12:52:49;11.67;;;10.47;;
4547;SDS011;2286;51.570;7.090;2023-08-17T12:55:18;12.07;;;10.97;;
4547;SDS011;2286;51.570;7.090;2023-08-17T12:57:44;10.90;;;9.70;;
4547;SDS011;2286;51.570;7.090;2023-08-17T13:00:12;10.60;;;9.73;;
4547;SDS011;2286;51.570;7.090;2023-08-17T13:02:39;10.20;;;9.27;;
4547;SDS011;2286;51.570;7.090;2023-08-17T13:05:06;19.10;;;10.47;;
4547;SDS011;2286;51.570;7.090;2023-08-17T13:07:33;13.37;;;8.63;;
4547;SDS011;2286;51.570;7.090;2023-08-17T13:10:00;10.73;;;9.83;;
4547;SDS011;2286;51.570;7.090;2023-08-17T13:12:28;9.10;;;8.17;;
4547;SDS011;2286;51.570;7.090;2023-08-17T13:14:55;9.77;;;8.77;;
4547;SDS011;2286;51.570;7.090;2023-08-17T13:17:22;11.93;;;9.73;;
4547;SDS011;2286;51.570;7.090;2023-08-17T13:19:48;10.63;;;9.53;;
4547;SDS011;2286;51.570;7.090;2023-08-17T13:22:15;11.03;;;9.93;;
4547;SDS011;2286;51.570;7.090;2023-08-17T13:24:42;10.10;;;9.10;;
4547;SDS011;2286;51.570;7.090;2023-08-17T13:27:09;13.40;;;10.93;;
4547;SDS011;2286;51.570;7.090;2023-08-17T13:29:37;13.47;;;11.47;;
4547;SDS011;2286;51.570;7.090;2023-08-17T13:32:05;12.90;;;11.70;;
4547;SDS011;2286;51.570;7.090;2023-08-17T13:34:32;13.40;;;12.10;;
4547;SDS011;2286;51.570;7.090;2023-08-17T13:36:59;13.23;;;11.90;;
4547;SDS011;2286;51.570;7.090;2023-08-17T13:39:28;13.20;;;12.10;;
4547;SDS011;2286;51.570;7.090;2023-08-17T13:41:54;17.93;;;14.57;;
4547;SDS011;2286;51.570;7.090;2023-08-17T13:44:21;14.73;;;13.17;;
4547;SDS011;2286;51.570;7.090;2023-08-17T13:46:49;14.23;;;12.40;;
4547;SDS011;2286;51.570;7.090;2023-08-17T13:49:16;12.87;;;11.57;;
4547;SDS011;2286;51.570;7.090;2023-08-17T13:51:43;12.23;;;11.03;;
4547;SDS011;2286;51.570;7.090;2023-08-17T13:54:10;13.10;;;11.80;;
4547;SDS011;2286;51.570;7.090;2023-08-17T13:56:36;15.00;;;13.57;;
4547;SDS011;2286;51.570;7.090;2023-08-17T13:59:03;12.50;;;11.30;;
4547;SDS011;2286;51.570;7.090;2023-08-17T14:01:30;11.73;;;10.63;;
4547;SDS011;2286;51.570;7.090;2023-08-17T14:03:58;12.27;;;10.93;;
4547;SDS011;2286;51.570;7.090;2023-08-17T14:06:28;11.97;;;10.87;;
4547;SDS011;2286;51.570;7.090;2023-08-17T14:08:55;12.43;;;11.07;;
4547;SDS011;2286;51.570;7.090;2023-08-17T14:11:22;12.23;;;10.90;;
4547;SDS011;2286;51.570;7.090;2023-08-17T14:13:48;14.07;;;12.87;;
4547;SDS011;2286;51.570;7.090;2023-08-17T14:16:15;11.87;;;10.63;;
4547;SDS011;2286;51.570;7.090;2023-08-17T14:18:42;12.60;;;11.30;;
4547;SDS011;2286;51.570;7.090;2023-08-17T14:21:10;12.53;;;11.33;;
4547;SDS011;2286;51.570;7.090;2023-08-17T14:23:37;11.80;;;10.70;;
4547;SDS011;2286;51.570;7.090;2023-08-17T14:26:05;12.50;;;11.27;;
4547;SDS011;2286;51.570;7.090;2023-08-17T14:28:32;12.40;;;11.20;;
4547;SDS011;2286;51.570;7.090;2023-08-17T14:30:59;11.70;;;10.67;;
4547;SDS011;2286;51.570;7.090;2023-08-17T14:33:25;12.80;;;11.20;;
4547;SDS011;2286;51.570;7.090;2023-08-17T14:35:52;12.17;;;11.07;;
4547;SDS011;2286;51.570;7.090;2023-08-17T14:38:20;12.37;;;11.17;;
4547;SDS011;2286;51.570;7.090;2023-08-17T14:40:48;13.20;;;11.80;;
4547;SDS011;2286;51.570;7.090;2023-08-17T14:43:15;12.00;;;10.97;;
4547;SDS011;2286;51.570;7.090;2023-08-17T14:45:42;12.10;;;11.00;;
4547;SDS011;2286;51.570;7.090;2023-08-17T14:48:09;12.33;;;11.20;;
4547;SDS011;2286;51.570;7.090;2023-08-17T14:50:36;13.53;;;11.70;;
4547;SDS011;2286;51.570;7.090;2023-08-17T14:53:04;13.20;;;11.93;;
4547;SDS011;2286;51.570;7.090;2023-08-17T14:55:33;11.77;;;10.67;;
4547;SDS011;2286;51.570;7.090;2023-08-17T14:58:00;13.23;;;10.63;;
4547;SDS011;2286;51.570;7.090;2023-08-17T15:00:26;13.30;;;11.47;;
4547;SDS011;2286;51.570;7.090;2023-08-17T15:02:54;13.57;;;12.23;;
4547;SDS011;2286;51.570;7.090;2023-08-17T15:05:22;14.07;;;11.03;;
4547;SDS011;2286;51.570;7.090;2023-08-17T15:07:49;10.87;;;10.00;;
4547;SDS011;2286;51.570;7.090;2023-08-17T15:10:16;11.87;;;10.60;;